Time;durP1;ratioP1;P1;durP2;ratioP2;P2;SDS_P1;SDS_P2;PMS_P1;PMS_P2;Temp;Humidity;BMP_temperature;BMP_pressure;BME280_temperature;BME280_humidity;BME280_pressure;Samples;Min_cycle;Max_cycle;Signal;HPM_P1;HPM_P2
2023/04/27 00:01:13;;;;;;;10.68;9.25;;;23.00;70.90;;;;;;6256037;28;89120;-67
2023/04/27 00:04:15;;;;;;;9.77;8.80;;;23.00;70.90;;;;;;6254283;28;89197;-67
2023/04/27 00:07:17;;;;;;;9.85;8.93;;;23.00;71.00;;;;;;6253247;28;88284;-67
2023/04/27 00:10:19;;;;;;;10.27;9.23;;;23.00;71.00;;;;;;6255275;28;89096;-67
2023/04/27 00:13:21;;;;;;;9.88;8.93;;;23.00;71.00;;;;;;6253496;28;88729;-67
2023/04/27 00:16:25;;;;;;;10.18;9.18;;;23.00;71.00;;;;;;6249133;28;89992;-67
2023/04/27 00:19:27;;;;;;;10.35;9.30;;;23.00;71.00;;;;;;6243797;28;88954;-67
2023/04/27 00:22:29;;;;;;;9.80;8.82;;;23.00;71.00;;;;;;6252657;28;88908;-67
2023/04/27 00:25:31;;;;;;;10.60;9.50;;;22.90;71.00;;;;;;6255112;28;88997;-67
2023/04/27 00:28:33;;;;;;;10.10;9.10;;;23.00;71.10;;;;;;6255196;28;89085;-68
2023/04/27 00:31:36;;;;;;;10.93;9.82;;;22.90;71.00;;;;;;6252332;28;89118;-67
2023/04/27 00:34:38;;;;;;;10.32;9.23;;;22.90;71.00;;;;;;6254802;28;88303;-67
2023/04/27 00:37:40;;;;;;;10.13;9.13;;;22.90;71.00;;;;;;6256180;28;89317;-66
2023/04/27 00:40:43;;;;;;;10.27;9.27;;;22.90;71.10;;;;;;6254416;28;89025;-66
2023/04/27 00:43:45;;;;;;;10.18;9.18;;;22.90;71.00;;;;;;6247319;28;88079;-67
2023/04/27 00:46:49;;;;;;;11.68;9.95;;;22.90;71.00;;;;;;6240172;28;88921;-67
2023/04/27 00:49:51;;;;;;;10.35;9.35;;;22.90;71.00;;;;;;6254225;28;87950;-67
2023/04/27 00:52:53;;;;;;;10.40;9.32;;;22.90;71.10;;;;;;6247773;28;89094;-67
2023/04/27 00:55:57;;;;;;;10.20;9.20;;;22.80;71.00;;;;;;6260109;28;89425;-67
2023/04/27 00:58:59;;;;;;;10.27;9.35;;;22.90;71.10;;;;;;6246166;28;89147;-67
2023/04/27 01:02:03;;;;;;;10.98;9.93;;;22.90;71.10;;;;;;6244724;28;88081;-67
2023/04/27 01:05:07;;;;;;;10.43;9.43;;;22.90;71.10;;;;;;6250096;28;89430;-67
2023/04/27 01:08:09;;;;;;;9.90;8.90;;;22.90;71.10;;;;;;6257253;28;88367;-67
2023/04/27 01:11:11;;;;;;;9.88;8.95;;;22.80;71.00;;;;;;6258130;28;87988;-67
2023/04/27 01:14:13;;;;;;;10.40;9.40;;;22.90;71.10;;;;;;6258508;28;89203;-67
2023/04/27 01:17:17;;;;;;;9.77;8.88;;;22.80;71.10;;;;;;6245340;27;90001;-67
2023/04/27 01:20:19;;;;;;;9.93;9.02;;;22.80;71.10;;;;;;6259013;28;89022;-67
2023/04/27 01:23:22;;;;;;;10.13;9.10;;;22.80;72.00;;;;;;6249872;28;89184;-67
2023/04/27 01:26:24;;;;;;;9.98;9.07;;;22.80;71.10;;;;;;6255397;28;89149;-67
2023/04/27 01:29:27;;;;;;;9.80;8.80;;;22.80;71.10;;;;;;6258541;28;89087;-67
2023/04/27 01:32:29;;;;;;;10.00;8.90;;;22.80;71.10;;;;;;6248744;28;88904;-67
2023/04/27 01:35:31;;;;;;;10.63;9.63;;;22.80;71.10;;;;;;6249431;28;89089;-67
2023/04/27 01:38:34;;;;;;;9.73;8.82;;;22.80;71.10;;;;;;6258000;28;88797;-67
2023/04/27 01:41:36;;;;;;;9.50;8.60;;;22.80;71.10;;;;;;6256910;28;88126;-67
2023/04/27 01:44:38;;;;;;;9.30;8.40;;;22.80;71.10;;;;;;6259040;28;89100;-67
2023/04/27 01:47:40;;;;;;;9.93;8.95;;;22.70;71.10;;;;;;6256796;28;90396;-67
2023/04/27 01:50:42;;;;;;;9.82;8.82;;;22.70;71.10;;;;;;6257873;28;89164;-67
2023/04/27 01:53:46;;;;;;;8.95;8.13;;;22.80;71.20;;;;;;6256949;28;89107;-67
2023/04/27 01:56:48;;;;;;;9.40;8.50;;;22.70;71.10;;;;;;6257429;28;90159;-67
2023/04/27 01:59:50;;;;;;;9.20;8.30;;;22.70;71.10;;;;;;6258100;28;89351;-67
2023/04/27 02:02:52;;;;;;;9.13;8.25;;;22.70;71.20;;;;;;6258339;28;89335;-67
2023/04/27 02:05:54;;;;;;;9.02;8.13;;;22.70;71.10;;;;;;6252749;28;89208;-67
2023/04/27 02:08:58;;;;;;;9.07;8.18;;;22.70;71.10;;;;;;6249981;28;89311;-67
2023/04/27 02:12:01;;;;;;;8.73;7.93;;;22.70;71.20;;;;;;6246603;28;88382;-67
2023/04/27 02:15:03;;;;;;;8.88;8.07;;;22.70;71.10;;;;;;6252487;28;89043;-67
2023/04/27 02:18:06;;;;;;;9.23;8.32;;;22.70;71.10;;;;;;6255757;27;91911;-67
2023/04/27 02:21:11;;;;;;;8.77;7.97;;;22.70;71.20;;;;;;6250836;28;89067;-67
2023/04/27 02:24:14;;;;;;;8.77;7.88;;;22.70;71.20;;;;;;6250216;28;89051;-67
2023/04/27 02:27:16;;;;;;;9.07;8.23;;;22.70;71.30;;;;;;6247836;28;88738;-67
2023/04/27 02:30:18;;;;;;;9.57;8.63;;;22.70;71.20;;;;;;6250045;28;88558;-67
2023/04/27 02:33:20;;;;;;;8.10;7.35;;;22.70;71.30;;;;;;6245630;28;88505;-67
2023/04/27 02:36:22;;;;;;;8.40;7.60;;;22.70;71.30;;;;;;6247411;28;87983;-67
2023/04/27 02:39:26;;;;;;;8.55;7.75;;;22.70;71.30;;;;;;6257381;28;88340;-67
2023/04/27 02:42:29;;;;;;;8.77;7.90;;;22.70;71.30;;;;;;6243080;28;88318;-68
2023/04/27 02:45:31;;;;;;;8.07;7.28;;;22.70;71.30;;;;;;6255932;28;88988;-68
2023/04/27 02:48:33;;;;;;;7.80;7.07;;;22.70;72.20;;;;;;6250499;28;90291;-67
2023/04/27 02:51:35;;;;;;;8.07;7.28;;;22.70;71.20;;;;;;6257309;28;88223;-67
2023/04/27 02:54:39;;;;;;;8.25;7.45;;;22.60;71.10;;;;;;6256998;28;88003;-67
2023/04/27 02:57:41;;;;;;;7.88;7.15;;;22.60;71.20;;;;;;6245762;28;89123;-67
2023/04/27 03:00:44;;;;;;;8.40;7.60;;;22.70;71.30;;;;;;6238166;28;89082;-67
2023/04/27 03:03:47;;;;;;;7.88;7.07;;;22.60;71.20;;;;;;6256900;28;89180;-67
2023/04/27 03:06:49;;;;;;;7.75;7.03;;;22.60;71.20;;;;;;6246589;28;89204;-67
2023/04/27 03:09:53;;;;;;;7.45;6.75;;;22.60;71.30;;;;;;6255063;28;88124;-67
2023/04/27 03:12:55;;;;;;;7.68;6.97;;;22.60;71.30;;;;;;6255946;28;89239;-67
2023/04/27 03:15:57;;;;;;;7.18;6.47;;;22.60;71.30;;;;;;6255588;28;89062;-67
2023/04/27 03:18:59;;;;;;;7.82;7.03;;;22.60;71.30;;;;;;6255243;28;88948;-67
2023/04/27 03:22:01;;;;;;;7.38;6.68;;;22.60;71.30;;;;;;6243737;28;89046;-67
2023/04/27 03:25:06;;;;;;;7.35;6.63;;;22.60;71.30;;;;;;6256326;28;89138;-67
2023/04/27 03:28:08;;;;;;;7.30;6.60;;;22.60;71.10;;;;;;6252662;28;89339;-67
2023/04/27 03:31:12;;;;;;;7.00;6.35;;;22.60;71.10;;;;;;6252702;28;89380;-67
2023/04/27 03:34:14;;;;;;;6.88;6.28;;;22.60;71.10;;;;;;6246152;28;89117;-67
2023/04/27 03:37:16;;;;;;;7.00;6.28;;;22.70;71.10;;;;;;6252332;28;94159;-67
2023/04/27 03:40:19;;;;;;;6.72;6.10;;;22.70;71.10;;;;;;6244053;28;93596;-67
2023/04/27 03:43:22;;;;;;;6.63;6.03;;;22.70;71.10;;;;;;6246639;28;94159;-67
2023/04/27 03:46:24;;;;;;;6.07;5.47;;;22.70;71.00;;;;;;6246076;28;94093;-67
2023/04/27 03:49:26;;;;;;;6.85;6.25;;;22.70;70.90;;;;;;6250693;28;95484;-68
2023/04/27 03:52:28;;;;;;;6.80;6.10;;;22.70;70.80;;;;;;6244922;28;94447;-67
2023/04/27 03:55:32;;;;;;;6.90;6.20;;;22.70;70.80;;;;;;6252607;28;94135;-67
2023/04/27 03:58:34;;;;;;;6.25;5.65;;;22.80;70.80;;;;;;6252164;28;94204;-67
2023/04/27 04:01:36;;;;;;;5.53;5.03;;;22.80;70.70;;;;;;6251670;28;94269;-67
2023/04/27 04:04:38;;;;;;;6.20;5.60;;;22.80;70.60;;;;;;6250324;28;94037;-67
2023/04/27 04:07:42;;;;;;;5.97;5.47;;;22.90;70.60;;;;;;6238443;28;94971;-67
2023/04/27 04:10:45;;;;;;;6.28;5.68;;;22.90;70.50;;;;;;6250721;28;93715;-67
2023/04/27 04:13:47;;;;;;;5.72;5.13;;;23.00;70.50;;;;;;6247258;28;94117;-67
2023/04/27 04:16:49;;;;;;;5.57;5.07;;;23.00;70.50;;;;;;6252972;28;94086;-67
2023/04/27 04:19:51;;;;;;;5.57;5.07;;;23.00;70.50;;;;;;6252285;28;95102;-67
2023/04/27 04:22:53;;;;;;;5.78;5.28;;;23.00;70.40;;;;;;6248855;28;94010;-67
2023/04/27 04:25:56;;;;;;;5.47;4.97;;;23.00;70.30;;;;;;6248098;28;94472;-67
2023/04/27 04:28:58;;;;;;;6.22;5.07;;;23.00;70.20;;;;;;6250525;28;94123;-67
2023/04/27 04:32:00;;;;;;;5.15;4.65;;;23.00;70.20;;;;;;6249165;28;94084;-67
2023/04/27 04:35:04;;;;;;;5.25;4.75;;;23.00;70.20;;;;;;6241841;28;94054;-67
2023/04/27 04:38:07;;;;;;;5.47;4.97;;;23.00;70.20;;;;;;6251892;28;94247;-67
2023/04/27 04:41:10;;;;;;;5.57;5.07;;;23.10;70.30;;;;;;6239260;28;93379;-67
2023/04/27 04:44:12;;;;;;;4.70;4.30;;;23.10;70.30;;;;;;6240938;28;94104;-67
2023/04/27 04:47:14;;;;;;;5.70;5.03;;;23.00;70.30;;;;;;6233768;28;94536;-67
2023/04/27 04:50:17;;;;;;;5.03;4.53;;;23.00;70.30;;;;;;6245601;28;93898;-67
2023/04/27 04:53:19;;;;;;;5.97;5.40;;;23.10;70.40;;;;;;6252106;28;93969;-67
2023/04/27 04:56:22;;;;;;;5.22;4.72;;;23.00;70.30;;;;;;6251696;28;94268;-67
2023/04/27 04:59:24;;;;;;;5.13;4.68;;;23.00;70.30;;;;;;6252768;28;94035;-67
2023/04/27 05:02:26;;;;;;;4.72;3.95;;;23.00;70.30;;;;;;6252355;28;94125;-67
2023/04/27 05:05:28;;;;;;;4.60;4.20;;;23.00;70.30;;;;;;6251096;28;94143;-67
2023/04/27 05:08:30;;;;;;;5.10;4.60;;;23.00;70.40;;;;;;6239360;27;94137;-67
2023/04/27 05:11:33;;;;;;;4.93;4.53;;;23.00;70.40;;;;;;6250306;28;93365;-67
2023/04/27 05:14:35;;;;;;;4.43;4.03;;;23.00;70.30;;;;;;6250388;28;94116;-67
2023/04/27 05:17:37;;;;;;;5.05;4.55;;;23.00;70.40;;;;;;6251564;28;94014;-67
2023/04/27 05:20:39;;;;;;;4.95;4.55;;;23.00;70.40;;;;;;6250423;28;96145;-67
2023/04/27 05:23:41;;;;;;;4.72;4.28;;;23.00;70.30;;;;;;6249874;28;93019;-66
2023/04/27 05:26:45;;;;;;;4.30;3.90;;;23.10;70.30;;;;;;6250896;28;94112;-67
2023/04/27 05:29:47;;;;;;;4.95;4.40;;;23.10;70.30;;;;;;6253807;27;94177;-67
2023/04/27 05:32:49;;;;;;;4.60;4.20;;;23.10;70.30;;;;;;6243068;27;94079;-67
2023/04/27 05:35:51;;;;;;;4.80;4.30;;;23.10;70.30;;;;;;6248995;28;94117;-67
2023/04/27 05:38:53;;;;;;;4.30;3.90;;;23.10;70.20;;;;;;6243375;27;94437;-68
2023/04/27 05:41:56;;;;;;;4.80;4.30;;;23.20;70.40;;;;;;6255039;28;93372;-68
2023/04/27 05:44:58;;;;;;;4.72;4.05;;;23.20;70.60;;;;;;6254035;28;94485;-66
2023/04/27 05:48:00;;;;;;;4.47;4.07;;;23.20;71.00;;;;;;6248639;28;94098;-68
2023/04/27 05:51:03;;;;;;;4.68;4.28;;;23.20;71.10;;;;;;6253594;28;95387;-68
2023/04/27 05:54:05;;;;;;;4.50;4.10;;;23.30;71.10;;;;;;6254600;28;94351;-68
2023/04/27 05:57:08;;;;;;;4.40;4.00;;;23.30;71.00;;;;;;6254709;28;94144;-68
2023/04/27 06:00:12;;;;;;;4.32;3.92;;;23.30;71.00;;;;;;6250795;27;94456;-68
2023/04/27 06:03:14;;;;;;;5.43;3.97;;;23.40;71.10;;;;;;6251495;27;94203;-68
2023/04/27 06:06:16;;;;;;;4.25;3.85;;;23.40;71.00;;;;;;6247539;28;95701;-68
2023/04/27 06:09:18;;;;;;;4.10;3.70;;;23.40;70.90;;;;;;6253674;28;94164;-68
2023/04/27 06:12:21;;;;;;;3.92;3.55;;;23.40;70.70;;;;;;6255006;28;92653;-68
2023/04/27 06:15:23;;;;;;;4.30;3.90;;;23.40;70.60;;;;;;6242780;28;94184;-68
2023/04/27 06:18:25;;;;;;;3.92;3.63;;;23.50;70.60;;;;;;6253877;28;94129;-68
2023/04/27 06:21:27;;;;;;;4.95;3.85;;;23.50;70.50;;;;;;6243525;28;96345;-69
2023/04/27 06:24:29;;;;;;;4.20;3.80;;;23.40;70.40;;;;;;6253604;28;94192;-68
2023/04/27 06:27:33;;;;;;;4.45;3.92;;;23.50;70.50;;;;;;6252419;28;94467;-68
2023/04/27 06:30:35;;;;;;;4.13;3.72;;;23.50;70.40;;;;;;6254373;28;94098;-68
2023/04/27 06:33:37;;;;;;;4.32;3.92;;;23.50;70.40;;;;;;6253088;28;93017;-68
2023/04/27 06:36:39;;;;;;;4.68;3.88;;;23.50;70.30;;;;;;6252152;28;94182;-68
2023/04/27 06:39:41;;;;;;;4.30;3.90;;;23.50;70.30;;;;;;6252872;28;93708;-68
2023/04/27 06:42:44;;;;;;;4.13;3.55;;;23.50;70.30;;;;;;6253051;28;93385;-68
2023/04/27 06:45:46;;;;;;;4.45;3.50;;;23.50;70.20;;;;;;6254128;28;94228;-68
2023/04/27 06:48:48;;;;;;;3.95;3.53;;;23.50;70.20;;;;;;6252283;27;94198;-68
2023/04/27 06:51:51;;;;;;;4.10;3.70;;;23.60;70.20;;;;;;6253478;28;95116;-68
2023/04/27 06:54:52;;;;;;;4.15;3.75;;;23.60;70.30;;;;;;6253168;28;94077;-68
2023/04/27 06:57:56;;;;;;;3.95;3.55;;;23.60;70.20;;;;;;6253642;28;93992;-68
2023/04/27 07:00:58;;;;;;;4.25;3.85;;;23.60;70.20;;;;;;6254189;28;94120;-68
2023/04/27 07:04:00;;;;;;;4.45;3.97;;;23.60;70.30;;;;;;6243747;28;94122;-68
2023/04/27 07:07:02;;;;;;;4.00;3.60;;;23.60;70.10;;;;;;6249589;28;94433;-68
2023/04/27 07:10:05;;;;;;;4.35;3.40;;;23.70;70.20;;;;;;6253112;28;94099;-68
2023/04/27 07:13:08;;;;;;;3.90;3.50;;;23.70;70.30;;;;;;6252265;28;93410;-68
2023/04/27 07:16:10;;;;;;;3.72;3.20;;;23.70;70.20;;;;;;6253050;28;94146;-68
2023/04/27 07:19:12;;;;;;;3.97;3.58;;;23.70;70.20;;;;;;6241630;28;93985;-68
2023/04/27 07:22:14;;;;;;;4.07;3.50;;;23.70;70.10;;;;;;6241574;28;93984;-68
2023/04/27 07:25:17;;;;;;;4.70;3.88;;;23.70;70.10;;;;;;6234694;28;94205;-68
2023/04/27 07:28:20;;;;;;;3.67;3.38;;;23.70;70.10;;;;;;6243280;28;94320;-68
2023/04/27 07:31:22;;;;;;;3.65;3.35;;;23.70;70.20;;;;;;6249996;28;94587;-68
2023/04/27 07:34:24;;;;;;;3.95;3.35;;;23.70;70.10;;;;;;6243488;28;94114;-68
2023/04/27 07:37:27;;;;;;;3.80;3.00;;;23.70;70.20;;;;;;6239782;28;94347;-68
2023/04/27 07:40:29;;;;;;;3.67;3.30;;;23.80;70.30;;;;;;6244806;28;94482;-68
2023/04/27 07:43:33;;;;;;;3.67;3.13;;;23.70;70.30;;;;;;6250101;28;93334;-68
2023/04/27 07:46:35;;;;;;;3.67;3.30;;;23.70;70.20;;;;;;6249320;28;94142;-68
2023/04/27 07:49:39;;;;;;;3.78;3.30;;;23.80;70.30;;;;;;6237544;28;94306;-68
2023/04/27 07:52:41;;;;;;;3.90;3.50;;;23.80;70.30;;;;;;6252588;28;95513;-68
2023/04/27 07:55:43;;;;;;;3.60;3.30;;;23.80;70.30;;;;;;6253191;28;93049;-68
2023/04/27 07:58:47;;;;;;;4.13;3.05;;;23.80;70.30;;;;;;6251412;28;94080;-68
2023/04/27 08:01:49;;;;;;;3.50;3.20;;;23.80;70.30;;;;;;6250403;27;94210;-68
2023/04/27 08:04:51;;;;;;;4.65;3.30;;;23.80;70.30;;;;;;6251442;28;94131;-68
2023/04/27 08:07:53;;;;;;;4.03;3.22;;;23.80;70.30;;;;;;6236562;28;94223;-68
2023/04/27 08:10:55;;;;;;;3.45;3.15;;;23.80;70.30;;;;;;6249882;28;94312;-67
2023/04/27 08:13:58;;;;;;;3.67;3.38;;;23.80;70.30;;;;;;6248978;28;93398;-67
2023/04/27 08:17:00;;;;;;;20.98;19.10;;;23.80;70.10;;;;;;6245121;28;94233;-68
2023/04/27 08:20:02;;;;;;;10.00;9.10;;;23.90;72.00;;;;;;6249047;28;94094;-68
2023/04/27 08:23:04;;;;;;;6.70;5.97;;;23.90;72.60;;;;;;6249351;28;95759;-68
2023/04/27 08:26:06;;;;;;;5.55;5.05;;;24.00;71.10;;;;;;6248256;28;93019;-69
2023/04/27 08:29:09;;;;;;;5.43;4.93;;;24.00;70.80;;;;;;6248743;28;94392;-68
2023/04/27 08:32:11;;;;;;;5.00;4.57;;;24.10;70.80;;;;;;6247807;28;94150;-68
2023/04/27 08:35:14;;;;;;;5.53;4.40;;;24.10;70.60;;;;;;6249161;28;94564;-68
2023/04/27 08:38:15;;;;;;;4.80;4.40;;;24.10;71.00;;;;;;6233099;28;94621;-68
2023/04/27 08:41:21;;;;;;;4.85;4.38;;;24.10;70.70;;;;;;6238294;28;94192;-68
2023/04/27 08:44:24;;;;;;;4.47;3.95;;;24.10;70.60;;;;;;6251013;28;93464;-69
2023/04/27 08:47:26;;;;;;;4.88;4.10;;;24.00;70.80;;;;;;6245010;28;94241;-69
2023/04/27 08:50:30;;;;;;;4.40;4.00;;;24.10;70.80;;;;;;6250043;28;94169;-69
2023/04/27 08:53:33;;;;;;;4.50;4.10;;;24.10;70.80;;;;;;6249122;28;95164;-69
2023/04/27 08:56:35;;;;;;;4.35;3.90;;;24.00;70.80;;;;;;6250072;28;94122;-69
2023/04/27 08:59:39;;;;;;;4.22;3.80;;;24.00;70.80;;;;;;6247981;28;94116;-69
2023/04/27 09:02:47;;;;;;;4.10;3.70;;;24.10;70.80;;;;;;6248901;28;93197;-69
2023/04/27 09:05:49;;;;;;;4.68;3.78;;;24.10;70.90;;;;;;6249496;28;94139;-69
2023/04/27 09:08:51;;;;;;;4.05;3.53;;;24.10;70.80;;;;;;6243214;28;94154;-69
2023/04/27 09:11:53;;;;;;;3.90;3.50;;;24.00;70.90;;;;;;6248407;28;94812;-69
2023/04/27 09:15:02;;;;;;;4.05;3.65;;;24.10;71.00;;;;;;6202130;28;1493145;-69
2023/04/27 09:18:04;;;;;;;4.13;3.72;;;24.10;70.80;;;;;;6256226;28;94294;-69
2023/04/27 09:21:06;;;;;;;3.78;3.47;;;24.00;70.80;;;;;;6255506;28;94791;-70
2023/04/27 09:24:12;;;;;;;3.83;3.42;;;24.00;70.80;;;;;;6253481;28;94915;-69
2023/04/27 09:27:20;;;;;;;3.60;3.30;;;24.00;70.80;;;;;;6254578;28;94176;-70
2023/04/27 09:30:24;;;;;;;3.70;3.25;;;24.00;70.80;;;;;;6253919;28;93956;-69
2023/04/27 09:33:28;;;;;;;3.72;3.38;;;24.00;70.80;;;;;;6251661;28;94275;-70
2023/04/27 09:36:32;;;;;;;3.28;2.97;;;24.10;70.90;;;;;;6255737;28;94142;-69
2023/04/27 09:39:35;;;;;;;3.60;3.30;;;24.00;70.90;;;;;;6251250;28;94098;-69
2023/04/27 09:42:38;;;;;;;3.45;3.13;;;24.00;71.00;;;;;;6246894;28;94136;-69
2023/04/27 09:45:41;;;;;;;3.08;2.83;;;24.00;71.00;;;;;;6256286;28;93482;-70
2023/04/27 09:48:43;;;;;;;3.72;3.22;;;24.10;71.00;;;;;;6254469;28;94363;-70
2023/04/27 09:51:45;;;;;;;3.30;3.00;;;24.00;71.00;;;;;;6255185;28;93095;-70
2023/04/27 09:54:48;;;;;;;3.35;3.05;;;24.00;71.00;;;;;;6251686;28;95004;-69
2023/04/27 09:57:59;;;;;;;3.17;2.88;;;24.00;71.00;;;;;;6251633;28;94512;-68
2023/04/27 10:01:10;;;;;;;3.42;3.13;;;24.10;71.10;;;;;;6252891;28;94013;-70
2023/04/27 10:04:36;;;;;;;3.22;2.92;;;24.10;71.10;;;;;;6253360;28;94361;-70
2023/04/27 10:07:40;;;;;;;3.47;2.90;;;24.00;71.00;;;;;;6240669;28;94170;-69
2023/04/27 10:10:48;;;;;;;3.75;3.30;;;24.00;71.10;;;;;;6253336;28;94055;-69
2023/04/27 10:13:54;;;;;;;3.53;2.75;;;24.10;71.10;;;;;;6253927;28;93888;-69
2023/04/27 10:16:59;;;;;;;5.13;2.83;;;24.10;71.20;;;;;;6242676;28;93284;-70
2023/04/27 10:20:03;;;;;;;3.05;2.70;;;24.10;71.30;;;;;;6253730;28;94362;-70
2023/04/27 10:23:05;;;;;;;4.13;2.90;;;24.10;71.10;;;;;;6246065;28;93899;-70
2023/04/27 10:26:08;;;;;;;2.88;2.55;;;24.20;71.00;;;;;;6247400;28;95054;-70
2023/04/27 10:29:11;;;;;;;3.25;2.78;;;24.10;70.80;;;;;;6241227;28;95647;-69
2023/04/27 10:32:22;;;;;;;2.90;2.70;;;24.10;70.80;;;;;;6244125;27;93743;-69
2023/04/27 10:35:33;;;;;;;3.10;2.83;;;24.10;70.90;;;;;;6243225;28;92912;-69
2023/04/27 10:38:40;;;;;;;2.90;2.60;;;24.10;70.80;;;;;;6242921;27;94047;-69
2023/04/27 10:41:50;;;;;;;3.22;2.78;;;24.10;70.80;;;;;;6241131;28;93999;-69
2023/04/27 10:44:56;;;;;;;3.05;2.72;;;24.10;70.80;;;;;;6247759;28;94198;-69
2023/04/27 10:48:01;;;;;;;2.85;2.63;;;24.10;70.70;;;;;;6247057;28;94475;-70
2023/04/27 10:51:05;;;;;;;2.75;2.55;;;24.10;70.80;;;;;;6253187;28;94240;-70
2023/04/27 10:54:08;;;;;;;3.47;2.67;;;24.10;70.70;;;;;;6253746;28;94759;-70
2023/04/27 10:57:11;;;;;;;2.60;2.40;;;24.10;70.90;;;;;;6251675;28;94188;-69
2023/04/27 11:00:16;;;;;;;3.13;2.83;;;24.10;71.00;;;;;;6252819;28;94089;-70
2023/04/27 11:03:24;;;;;;;3.10;2.70;;;24.10;71.10;;;;;;6253026;28;94156;-70
2023/04/27 11:06:26;;;;;;;2.70;2.50;;;24.10;71.10;;;;;;6246158;28;94194;-69
2023/04/27 11:09:29;;;;;;;2.55;2.35;;;24.10;71.10;;;;;;6250554;28;94039;-70
2023/04/27 11:12:32;;;;;;;3.17;2.65;;;24.10;71.10;;;;;;6254125;28;94112;-70
2023/04/27 11:15:43;;;;;;;2.80;2.45;;;24.10;71.20;;;;;;6253019;28;94180;-70
2023/04/27 11:18:47;;;;;;;2.88;2.58;;;24.10;71.10;;;;;;6253257;28;93458;-70
2023/04/27 11:21:49;;;;;;;2.80;2.60;;;24.10;71.00;;;;;;6252151;28;94244;-70
2023/04/27 11:24:52;;;;;;;3.00;2.70;;;24.10;70.80;;;;;;6246054;28;94146;-70
2023/04/27 11:27:54;;;;;;;3.33;2.25;;;24.10;70.60;;;;;;6240145;28;94960;-70
2023/04/27 11:30:57;;;;;;;2.95;2.35;;;24.10;70.60;;;;;;6252878;28;94081;-70
2023/04/27 11:34:00;;;;;;;2.60;2.25;;;24.10;70.70;;;;;;6251041;28;94502;-70
2023/04/27 11:37:04;;;;;;;2.40;2.20;;;24.10;70.70;;;;;;6250099;28;94126;-70
2023/04/27 11:40:08;;;;;;;2.80;2.35;;;24.10;70.90;;;;;;6245623;28;94043;-70
2023/04/27 11:43:13;;;;;;;2.55;2.35;;;24.10;70.90;;;;;;6249534;28;94177;-70
2023/04/27 11:46:15;;;;;;;2.67;2.38;;;24.10;70.80;;;;;;6252431;28;94024;-70
2023/04/27 11:49:18;;;;;;;2.95;2.38;;;24.10;70.90;;;;;;6252310;27;93382;-70
2023/04/27 11:52:20;;;;;;;2.80;2.30;;;24.10;70.80;;;;;;6251723;27;94181;-70
2023/04/27 11:55:23;;;;;;;2.88;2.38;;;24.10;70.80;;;;;;6251012;28;94113;-70
2023/04/27 11:58:27;;;;;;;2.97;2.38;;;24.10;70.70;;;;;;6250958;28;95228;-70
2023/04/27 12:01:30;;;;;;;2.70;2.17;;;24.10;70.60;;;;;;6252085;28;93951;-70
2023/04/27 12:04:33;;;;;;;2.58;2.15;;;24.10;70.50;;;;;;6252481;28;94013;-70
2023/04/27 12:07:36;;;;;;;2.47;2.20;;;24.10;70.60;;;;;;6249472;28;94086;-70
2023/04/27 12:10:38;;;;;;;2.40;2.20;;;24.10;70.60;;;;;;6247929;28;94186;-70
2023/04/27 12:13:40;;;;;;;3.10;2.20;;;24.10;70.70;;;;;;6241158;28;94102;-70
2023/04/27 12:16:42;;;;;;;2.28;2.08;;;24.10;70.60;;;;;;6248060;28;94396;-70
2023/04/27 12:19:46;;;;;;;2.85;2.30;;;24.10;70.60;;;;;;6242195;27;93712;-70
2023/04/27 12:22:48;;;;;;;2.40;2.20;;;24.10;70.60;;;;;;6246888;28;94111;-70
2023/04/27 12:25:50;;;;;;;3.08;2.00;;;24.10;70.60;;;;;;6238022;28;94384;-70
2023/04/27 12:28:52;;;;;;;2.53;2.30;;;24.10;70.50;;;;;;6250930;28;95390;-70
2023/04/27 12:31:54;;;;;;;2.65;2.13;;;24.10;70.50;;;;;;6250817;28;93087;-70
2023/04/27 12:34:57;;;;;;;2.42;2.22;;;24.10;70.30;;;;;;6251657;28;94397;-70
2023/04/27 12:37:59;;;;;;;2.20;2.00;;;24.10;70.20;;;;;;6251187;28;94072;-70
2023/04/27 12:41:02;;;;;;;2.97;2.20;;;24.10;70.30;;;;;;6241067;28;92965;-70
2023/04/27 12:44:05;;;;;;;2.33;2.13;;;24.10;70.30;;;;;;6250957;28;94037;-70
2023/04/27 12:47:07;;;;;;;2.20;2.00;;;24.10;70.30;;;;;;6251764;27;94198;-70
2023/04/27 12:50:10;;;;;;;2.10;1.90;;;24.10;70.40;;;;;;6243111;28;93544;-70
2023/04/27 12:53:12;;;;;;;2.15;1.90;;;24.10;70.40;;;;;;6240716;28;95213;-69
2023/04/27 12:56:15;;;;;;;2.45;2.00;;;24.00;70.50;;;;;;6254620;28;94168;-69
2023/04/27 12:59:17;;;;;;;2.17;2.05;;;24.10;70.70;;;;;;6254877;28;95025;-69
2023/04/27 13:02:19;;;;;;;2.50;2.20;;;24.00;70.70;;;;;;6254222;28;94401;-69
2023/04/27 13:05:22;;;;;;;3.15;2.28;;;24.00;70.60;;;;;;6246955;28;94142;-69
2023/04/27 13:08:24;;;;;;;2.13;1.95;;;24.00;70.60;;;;;;6236206;28;94091;-69
2023/04/27 13:11:27;;;;;;;3.22;2.20;;;24.00;70.70;;;;;;6241487;28;94128;-69
2023/04/27 13:14:30;;;;;;;2.35;2.10;;;24.00;70.50;;;;;;6255384;28;94668;-69
2023/04/27 13:17:32;;;;;;;2.05;1.88;;;24.00;70.70;;;;;;6256010;28;94134;-68
2023/04/27 13:20:36;;;;;;;4.32;2.00;;;24.00;70.80;;;;;;6254530;28;92330;-69
2023/04/27 13:23:38;;;;;;;2.25;2.00;;;24.00;70.90;;;;;;6248144;28;94199;-69
2023/04/27 13:26:40;;;;;;;3.00;2.13;;;24.00;71.00;;;;;;6253771;28;94242;-70
2023/04/27 13:29:42;;;;;;;2.92;2.00;;;24.00;71.10;;;;;;6254945;28;95056;-69
2023/04/27 13:32:44;;;;;;;3.25;2.13;;;24.00;70.90;;;;;;6254287;28;92999;-70
2023/04/27 13:35:48;;;;;;;2.25;2.00;;;24.00;70.50;;;;;;6252174;28;94074;-69
2023/04/27 13:38:50;;;;;;;3.60;2.13;;;23.90;70.30;;;;;;6253304;28;94120;-69
2023/04/27 13:41:52;;;;;;;4.88;2.22;;;23.90;70.50;;;;;;6244148;28;92970;-69
2023/04/27 13:44:54;;;;;;;4.07;2.17;;;23.90;70.50;;;;;;6248604;28;94222;-70
2023/04/27 13:47:57;;;;;;;2.10;1.90;;;24.00;70.40;;;;;;6253827;28;96160;-70
2023/04/27 13:51:00;;;;;;;2.17;1.98;;;24.00;70.10;;;;;;6250713;28;93404;-70
2023/04/27 13:54:02;;;;;;;2.90;2.20;;;23.90;69.60;;;;;;6250160;28;94307;-70
2023/04/27 13:57:05;;;;;;;2.58;2.33;;;23.90;69.60;;;;;;6254534;28;94145;-70
2023/04/27 14:00:10;;;;;;;3.17;1.98;;;24.00;69.30;;;;;;6251890;27;94977;-69
2023/04/27 14:03:12;;;;;;;2.58;2.00;;;23.90;69.30;;;;;;6256308;27;94131;-70
2023/04/27 14:06:15;;;;;;;2.33;1.90;;;23.90;69.30;;;;;;6248974;28;94237;-70
2023/04/27 14:09:17;;;;;;;2.65;2.10;;;23.90;69.10;;;;;;6243730;28;94085;-70
2023/04/27 14:12:19;;;;;;;2.97;2.13;;;23.90;68.90;;;;;;6250471;28;94103;-70
2023/04/27 14:15:22;;;;;;;2.30;2.10;;;23.90;68.80;;;;;;6243240;28;94186;-70
2023/04/27 14:18:24;;;;;;;2.47;2.28;;;23.90;68.60;;;;;;6251567;28;94237;-70
2023/04/27 14:21:27;;;;;;;3.38;2.20;;;23.90;68.60;;;;;;6245388;28;93100;-70
2023/04/27 14:24:29;;;;;;;2.58;2.00;;;23.90;68.80;;;;;;6247792;28;94183;-70
2023/04/27 14:27:31;;;;;;;2.85;2.00;;;23.90;68.50;;;;;;6241517;28;94071;-70
2023/04/27 14:30:34;;;;;;;2.17;1.98;;;23.90;68.40;;;;;;6251978;28;95016;-70
2023/04/27 14:33:36;;;;;;;3.40;2.10;;;23.90;68.60;;;;;;6248455;28;94076;-70
2023/04/27 14:36:40;;;;;;;3.75;2.15;;;23.90;68.60;;;;;;6253077;28;94071;-70
2023/04/27 14:39:42;;;;;;;2.10;1.90;;;23.90;68.50;;;;;;6246224;28;94017;-70
2023/04/27 14:42:44;;;;;;;2.15;1.95;;;23.90;68.50;;;;;;6253844;28;94085;-70
2023/04/27 14:45:46;;;;;;;2.90;1.92;;;23.90;68.60;;;;;;6247259;28;93011;-70
2023/04/27 14:48:49;;;;;;;2.28;2.08;;;23.90;68.70;;;;;;6251473;28;94099;-70
2023/04/27 14:51:52;;;;;;;2.10;1.70;;;23.90;68.80;;;;;;6252295;28;93473;-70
2023/04/27 14:54:54;;;;;;;2.67;2.05;;;23.90;68.80;;;;;;6252238;28;94068;-70
2023/04/27 14:57:56;;;;;;;2.00;1.90;;;23.90;69.10;;;;;;6252818;28;94062;-70
2023/04/27 15:00:58;;;;;;;2.65;2.10;;;23.90;68.90;;;;;;6249673;28;95047;-70
2023/04/27 15:04:01;;;;;;;2.53;2.15;;;23.90;68.90;;;;;;6253463;28;93006;-70
2023/04/27 15:07:05;;;;;;;3.10;2.00;;;23.90;68.80;;;;;;6243894;28;93522;-70
2023/04/27 15:10:08;;;;;;;2.15;2.00;;;23.90;68.80;;;;;;6250627;28;94176;-70
2023/04/27 15:13:10;;;;;;;2.53;1.83;;;23.90;68.80;;;;;;6253251;27;94120;-70
2023/04/27 15:16:12;;;;;;;2.85;1.90;;;23.90;68.70;;;;;;6250833;28;94242;-70
2023/04/27 15:19:14;;;;;;;2.10;1.90;;;23.90;68.80;;;;;;6254017;28;94424;-70
2023/04/27 15:22:18;;;;;;;2.17;1.98;;;23.90;68.80;;;;;;6253250;27;92635;-70
2023/04/27 15:25:20;;;;;;;2.38;1.92;;;23.80;68.70;;;;;;6249617;28;94150;-69
2023/04/27 15:28:22;;;;;;;2.50;1.80;;;23.90;68.80;;;;;;6254160;28;94177;-69
2023/04/27 15:31:24;;;;;;;2.22;2.00;;;23.90;68.90;;;;;;6241826;28;95835;-70
2023/04/27 15:34:27;;;;;;;2.65;2.20;;;23.90;68.90;;;;;;6245785;28;94131;-70
2023/04/27 15:37:30;;;;;;;2.25;2.05;;;23.90;68.90;;;;;;6253314;28;94260;-69
2023/04/27 15:40:33;;;;;;;2.05;1.80;;;23.90;69.00;;;;;;6240179;28;94143;-69
2023/04/27 15:43:35;;;;;;;2.13;1.92;;;23.80;69.10;;;;;;6249873;28;94209;-70
2023/04/27 15:46:37;;;;;;;2.30;2.03;;;23.90;69.20;;;;;;6250242;28;94081;-69
2023/04/27 15:49:39;;;;;;;2.03;1.80;;;23.80;69.10;;;;;;6250861;28;94121;-69